createdAt,value
2018-07-23T00:00:56.430Z,23.92
2018-07-23T00:03:25.296Z,22.50
2018-07-23T00:05:54.143Z,24.48
2018-07-23T00:08:22.987Z,23.33
2018-07-23T00:10:51.830Z,21.20
2018-07-23T00:13:20.668Z,21.30
2018-07-23T00:15:49.507Z,24.15
2018-07-23T00:18:18.350Z,23.38
2018-07-23T00:20:47.192Z,23.67
2018-07-23T00:23:16.040Z,23.17
2018-07-23T00:25:44.903Z,22.50
2018-07-23T00:28:13.749Z,28.02
2018-07-23T00:30:42.587Z,23.12
2018-07-23T00:33:11.440Z,24.60
2018-07-23T00:35:40.284Z,26.90
2018-07-23T00:38:09.898Z,28.77
2018-07-23T00:40:39.488Z,27.00
2018-07-23T00:43:08.928Z,31.12
2018-07-23T00:45:37.769Z,31.00
2018-07-23T00:48:06.615Z,25.90
2018-07-23T00:50:35.480Z,27.85
2018-07-23T00:53:04.313Z,26.12
2018-07-23T00:55:33.149Z,29.67
2018-07-23T00:58:01.997Z,26.83
2018-07-23T01:00:30.843Z,27.45
2018-07-23T01:02:59.684Z,26.83
2018-07-23T01:05:28.519Z,29.33
2018-07-23T01:07:57.363Z,28.48
2018-07-23T01:10:26.200Z,27.70
2018-07-23T01:12:55.781Z,29.67
2018-07-23T01:15:24.633Z,27.35
2018-07-23T01:17:53.479Z,28.30
2018-07-23T01:20:23.061Z,26.80
2018-07-23T01:22:51.912Z,28.65
2018-07-23T01:25:20.792Z,36.55
2018-07-23T01:27:49.631Z,29.92
2018-07-23T01:30:18.477Z,27.75
2018-07-23T01:32:47.323Z,28.90
2018-07-23T01:35:16.957Z,28.12
2018-07-23T01:37:45.755Z,28.12
2018-07-23T01:40:14.601Z,27.45
2018-07-23T01:42:43.464Z,27.23
2018-07-23T01:45:12.302Z,29.87
2018-07-23T01:47:41.159Z,23.65
2018-07-23T01:50:10.744Z,23.20
2018-07-23T01:52:39.582Z,22.80
2018-07-23T01:55:08.429Z,23.30
2018-07-23T01:57:37.283Z,23.62
2018-07-23T02:00:06.133Z,26.02
2018-07-23T02:02:34.988Z,26.65
2018-07-23T02:05:03.831Z,31.35
2018-07-23T02:07:32.678Z,27.73
2018-07-23T02:10:01.748Z,26.45
2018-07-23T02:12:30.442Z,26.20
2018-07-23T02:14:59.290Z,25.02
2018-07-23T02:17:28.880Z,24.87
2018-07-23T02:19:57.734Z,26.65
2018-07-23T02:22:26.577Z,28.23
2018-07-23T02:24:55.420Z,23.33
2018-07-23T02:27:24.266Z,24.55
2018-07-23T02:29:53.107Z,23.77
2018-07-23T02:32:21.958Z,23.38
2018-07-23T02:34:50.801Z,23.45
2018-07-23T02:37:19.648Z,23.48
2018-07-23T02:39:48.490Z,20.90
2018-07-23T02:42:17.345Z,21.65
2018-07-23T02:44:46.178Z,20.52
2018-07-23T02:47:15.026Z,21.60
2018-07-23T02:49:43.873Z,22.92
2018-07-23T02:52:12.715Z,21.17
2018-07-23T02:54:41.572Z,21.95
2018-07-23T02:57:10.414Z,25.67
2018-07-23T02:59:40.020Z,27.37
2018-07-23T03:02:08.849Z,31.08
2018-07-23T03:04:37.702Z,24.67
2018-07-23T03:07:06.547Z,27.90
2018-07-23T03:09:35.395Z,24.80
2018-07-23T03:12:04.245Z,27.48
2018-07-23T03:14:33.083Z,25.88
2018-07-23T03:17:01.930Z,24.08
2018-07-23T03:19:30.781Z,26.15
2018-07-23T03:21:59.732Z,26.37
2018-07-23T03:24:28.477Z,26.02
2018-07-23T03:26:57.325Z,31.83
2018-07-23T03:29:26.176Z,29.95
2018-07-23T03:31:55.013Z,29.73
2018-07-23T03:34:23.855Z,24.25
2018-07-23T03:36:52.725Z,31.42
2018-07-23T03:39:21.566Z,39.42
2018-07-23T03:41:50.405Z,43.60
2018-07-23T03:44:19.266Z,49.13
2018-07-23T03:46:48.104Z,45.78
2018-07-23T03:49:17.696Z,46.72
2018-07-23T03:51:46.549Z,56.58
2018-07-23T03:54:15.389Z,48.50
2018-07-23T03:56:44.233Z,48.80
2018-07-23T03:59:13.080Z,48.10
2018-07-23T04:01:41.928Z,51.35
2018-07-23T04:04:10.767Z,49.47
2018-07-23T04:06:39.613Z,49.45
2018-07-23T04:09:08.456Z,49.50
2018-07-23T04:11:37.304Z,45.97
2018-07-23T04:14:06.160Z,41.25
2018-07-23T04:16:34.999Z,42.28
2018-07-23T04:19:03.850Z,42.95
2018-07-23T04:21:32.701Z,42.27
2018-07-23T04:24:01.553Z,36.83
2018-07-23T04:26:30.392Z,40.60
2018-07-23T04:28:59.258Z,39.05
2018-07-23T04:31:28.099Z,37.63
2018-07-23T04:33:56.963Z,40.35
2018-07-23T04:36:25.813Z,43.03
2018-07-23T04:38:54.669Z,41.08
2018-07-23T04:41:23.531Z,42.25
2018-07-23T04:43:52.378Z,42.25
2018-07-23T04:46:21.224Z,40.63
2018-07-23T04:48:50.069Z,41.78
2018-07-23T04:51:18.930Z,41.08
2018-07-23T04:53:47.783Z,44.65
2018-07-23T04:56:16.619Z,40.20
2018-07-23T04:58:45.464Z,43.10
2018-07-23T05:01:14.301Z,33.38
2018-07-23T05:03:43.153Z,36.15
2018-07-23T05:06:12.000Z,40.05
2018-07-23T05:08:41.629Z,40.67
2018-07-23T05:11:10.432Z,39.97
2018-07-23T05:13:39.288Z,37.22
2018-07-23T05:16:08.144Z,39.75
2018-07-23T05:18:37.012Z,46.55
2018-07-23T05:21:05.837Z,38.25
2018-07-23T05:23:34.679Z,37.47
2018-07-23T05:26:03.542Z,32.22
2018-07-23T05:28:32.366Z,27.55
2018-07-23T05:31:01.231Z,29.63
2018-07-23T05:33:30.088Z,28.20
2018-07-23T05:35:58.939Z,30.95
2018-07-23T05:38:27.792Z,26.95
2018-07-23T05:40:56.669Z,28.05
2018-07-23T05:43:25.480Z,25.15
2018-07-23T05:45:55.064Z,25.30
2018-07-23T05:48:23.912Z,30.55
2018-07-23T05:50:52.754Z,25.75
2018-07-23T05:53:21.598Z,31.75
2018-07-23T05:55:50.456Z,28.58
2018-07-23T05:58:19.312Z,27.77
2018-07-23T06:00:48.161Z,27.77
2018-07-23T06:03:17.007Z,33.58
2018-07-23T06:05:46.600Z,27.37
2018-07-23T06:08:16.061Z,29.42
2018-07-23T06:10:44.916Z,30.35
2018-07-23T06:13:13.791Z,26.52
2018-07-23T06:15:42.600Z,27.02
2018-07-23T06:18:11.450Z,27.87
2018-07-23T06:20:40.313Z,27.73
2018-07-23T06:23:09.220Z,31.42
2018-07-23T06:25:38.173Z,30.50
2018-07-23T06:28:06.991Z,29.77
2018-07-23T06:30:35.838Z,32.97
2018-07-23T06:33:05.443Z,35.15
2018-07-23T06:35:34.286Z,31.90
2018-07-23T06:38:03.127Z,34.28
2018-07-23T06:40:31.976Z,34.83
2018-07-23T06:43:00.816Z,35.42
2018-07-23T06:45:29.660Z,34.65
2018-07-23T06:47:58.503Z,35.95
2018-07-23T06:50:27.348Z,37.22
2018-07-23T06:52:56.213Z,37.88
2018-07-23T06:55:25.054Z,40.40
2018-07-23T06:57:53.907Z,39.38
2018-07-23T07:00:22.762Z,37.08
2018-07-23T07:02:51.605Z,40.45
2018-07-23T07:05:21.182Z,41.13
2018-07-23T07:07:50.095Z,40.75
2018-07-23T07:10:18.936Z,41.45
2018-07-23T07:12:47.777Z,41.80
2018-07-23T07:15:16.631Z,49.30
2018-07-23T07:17:45.479Z,60.72
2018-07-23T07:20:14.327Z,51.92
2018-07-23T07:22:43.178Z,56.37
2018-07-23T07:25:12.033Z,53.60
2018-07-23T07:27:40.895Z,55.78
2018-07-23T07:30:09.735Z,66.45
2018-07-23T07:32:38.577Z,56.92
2018-07-23T07:35:07.446Z,58.30
2018-07-23T07:37:36.313Z,62.88
2018-07-23T07:40:05.153Z,54.55
2018-07-23T07:42:33.996Z,57.60
2018-07-23T07:45:03.604Z,55.28
2018-07-23T07:47:33.192Z,53.80
2018-07-23T07:50:02.042Z,65.30
2018-07-23T07:52:30.884Z,62.95
2018-07-23T07:54:59.739Z,53.90
2018-07-23T07:57:28.592Z,58.65
2018-07-23T07:59:58.181Z,52.25
2018-07-23T08:02:27.050Z,54.47
2018-07-23T08:04:55.889Z,56.53
2018-07-23T08:07:24.733Z,49.88
2018-07-23T08:09:53.587Z,49.45
2018-07-23T08:12:22.489Z,49.97
2018-07-23T08:14:51.318Z,46.30
2018-07-23T08:17:20.164Z,57.65
2018-07-23T08:19:49.015Z,49.38
2018-07-23T08:22:18.607Z,51.13
2018-07-23T08:24:47.463Z,51.20
2018-07-23T08:27:16.296Z,47.70
2018-07-23T08:29:45.150Z,49.60
2018-07-23T08:32:14.034Z,45.53
2018-07-23T08:34:42.824Z,48.00
2018-07-23T08:37:11.718Z,52.78
2018-07-23T08:39:40.581Z,51.03
2018-07-23T08:42:09.368Z,47.03
2018-07-23T08:44:38.212Z,41.55
2018-07-23T08:47:07.064Z,46.17
2018-07-23T08:49:35.914Z,50.10
2018-07-23T08:52:05.491Z,44.17
2018-07-23T08:54:34.336Z,42.70
2018-07-23T08:57:03.185Z,42.40
2018-07-23T08:59:32.035Z,41.97
2018-07-23T09:02:00.874Z,49.72
2018-07-23T09:04:30.472Z,45.45
2018-07-23T09:07:00.061Z,44.10
2018-07-23T09:09:28.901Z,43.67
2018-07-23T09:11:57.752Z,43.55
2018-07-23T09:14:26.607Z,41.75
2018-07-23T09:16:55.459Z,45.72
2018-07-23T09:19:24.307Z,35.92
2018-07-23T09:21:53.158Z,33.05
2018-07-23T09:24:21.998Z,28.75
2018-07-23T09:26:50.855Z,26.58
2018-07-23T09:29:19.691Z,26.12
2018-07-23T09:31:49.294Z,25.08
2018-07-23T09:34:18.151Z,30.48
2018-07-23T09:36:46.993Z,38.47
2018-07-23T09:39:16.587Z,32.10
2018-07-23T09:41:45.422Z,30.98
2018-07-23T09:44:14.269Z,31.77
2018-07-23T09:46:43.860Z,29.33
2018-07-23T09:49:12.697Z,27.13
2018-07-23T09:51:41.540Z,29.33
2018-07-23T09:54:11.124Z,26.42
2018-07-23T09:56:39.957Z,32.20
2018-07-23T09:59:08.817Z,30.70
2018-07-23T10:01:37.650Z,28.58
2018-07-23T10:04:06.503Z,30.88
2018-07-23T10:06:35.359Z,28.02
2018-07-23T10:09:04.208Z,31.15
2018-07-23T10:11:33.060Z,29.45
2018-07-23T10:14:02.652Z,25.30
2018-07-23T10:16:31.483Z,26.05
2018-07-23T10:19:00.342Z,25.67
2018-07-23T10:21:29.209Z,27.40
2018-07-23T10:23:58.055Z,27.58
2018-07-23T10:26:26.904Z,28.00
2018-07-23T10:28:55.765Z,25.67
2018-07-23T10:31:24.624Z,22.92
2018-07-23T10:33:54.200Z,22.50
2018-07-23T10:36:23.049Z,20.37
2018-07-23T10:38:51.909Z,19.33
2018-07-23T10:43:28.167Z,24.02
2018-07-23T10:45:57.772Z,21.10
2018-07-23T10:48:26.612Z,20.30
2018-07-23T10:50:55.518Z,19.65
2018-07-23T10:53:24.320Z,19.15
2018-07-23T10:55:53.182Z,19.40
2018-07-23T10:58:22.025Z,22.40
2018-07-23T11:00:51.628Z,18.02
2018-07-23T11:03:20.478Z,19.70
2018-07-23T11:05:49.331Z,21.33
2018-07-23T11:08:18.167Z,20.55
2018-07-23T11:10:47.017Z,16.05
2018-07-23T11:13:15.856Z,10.30
2018-07-23T11:15:44.705Z,10.20
2018-07-23T11:18:13.547Z,7.62
2018-07-23T11:20:42.407Z,7.35
2018-07-23T11:23:11.294Z,7.60
2018-07-23T11:25:40.669Z,6.65
2018-07-23T11:28:09.720Z,6.25
2018-07-23T11:30:38.571Z,7.37
2018-07-23T11:33:07.451Z,8.38
2018-07-23T11:35:36.251Z,8.35
2018-07-23T11:38:05.090Z,8.13
2018-07-23T11:40:33.949Z,7.82
2018-07-23T11:43:02.782Z,8.70
2018-07-23T11:45:31.637Z,8.82
2018-07-23T11:48:00.483Z,10.93
2018-07-23T11:50:30.516Z,10.30
2018-07-23T11:52:58.173Z,9.93
2018-07-23T11:55:27.018Z,9.82
2018-07-23T11:57:56.609Z,8.77
2018-07-23T12:00:25.433Z,9.10
2018-07-23T12:02:54.284Z,9.48
2018-07-23T12:05:23.121Z,8.80
2018-07-23T12:07:51.972Z,8.73
2018-07-23T12:10:20.812Z,8.90
2018-07-23T12:12:49.661Z,9.05
2018-07-23T12:15:18.490Z,9.07
2018-07-23T12:17:47.332Z,8.52
2018-07-23T12:20:16.915Z,8.43
2018-07-23T12:22:45.745Z,8.52
2018-07-23T12:25:14.591Z,8.70
2018-07-23T12:27:43.435Z,7.85
2018-07-23T12:30:12.272Z,9.15
2018-07-23T12:32:41.115Z,8.77
2018-07-23T12:35:09.956Z,8.20
2018-07-23T12:37:38.801Z,8.75
2018-07-23T12:40:07.655Z,8.98
2018-07-23T12:42:37.226Z,9.18
2018-07-23T12:45:06.078Z,9.02
2018-07-23T12:47:34.919Z,9.13
2018-07-23T12:50:03.768Z,9.07
2018-07-23T12:52:32.647Z,8.27
2018-07-23T12:55:01.467Z,7.97
2018-07-23T12:57:30.323Z,9.20
2018-07-23T12:59:59.977Z,8.50
2018-07-23T13:02:29.351Z,8.80
2018-07-23T13:04:58.188Z,8.20
2018-07-23T13:07:27.027Z,7.68
2018-07-23T13:09:55.864Z,7.93
2018-07-23T13:12:24.705Z,8.65
2018-07-23T13:14:53.571Z,7.72
2018-07-23T13:17:22.379Z,7.75
2018-07-23T13:19:51.217Z,8.35
2018-07-23T13:22:20.065Z,9.30
2018-07-23T13:24:48.910Z,8.82
2018-07-23T13:27:17.742Z,7.90
2018-07-23T13:29:46.575Z,6.68
2018-07-23T13:32:15.437Z,6.95
2018-07-23T13:34:44.985Z,6.60
2018-07-23T13:37:13.830Z,6.20
2018-07-23T13:39:42.668Z,6.20
2018-07-23T13:42:11.516Z,7.47
2018-07-23T13:44:40.358Z,6.47
2018-07-23T13:47:09.952Z,7.30
2018-07-23T13:49:38.792Z,7.93
2018-07-23T13:52:07.628Z,7.32
2018-07-23T13:54:36.459Z,7.30
2018-07-23T13:57:05.302Z,8.03
2018-07-23T13:59:34.150Z,7.22
2018-07-23T14:02:02.990Z,6.57
2018-07-23T14:04:31.832Z,6.72
2018-07-23T14:07:00.690Z,6.90
2018-07-23T14:09:30.272Z,6.40
2018-07-23T14:11:59.112Z,6.90
2018-07-23T14:14:27.951Z,6.47
2018-07-23T14:16:56.795Z,6.03
2018-07-23T14:19:25.656Z,6.07
2018-07-23T14:21:54.477Z,5.97
2018-07-23T14:24:23.319Z,5.97
2018-07-23T14:26:52.153Z,5.75
2018-07-23T14:29:20.994Z,6.80
2018-07-23T14:31:49.851Z,5.90
2018-07-23T14:34:18.706Z,6.63
2018-07-23T14:36:47.537Z,6.12
2018-07-23T14:39:16.374Z,7.10
2018-07-23T14:41:45.218Z,6.57
2018-07-23T14:44:14.054Z,6.43
2018-07-23T14:46:43.635Z,6.70
2018-07-23T14:49:12.487Z,6.68
2018-07-23T14:51:41.331Z,6.45
2018-07-23T14:54:10.171Z,6.68
2018-07-23T14:56:39.049Z,6.15
2018-07-23T14:59:08.591Z,6.15
2018-07-23T15:01:37.445Z,6.60
2018-07-23T15:04:06.286Z,6.22
2018-07-23T15:06:35.129Z,6.03
2018-07-23T15:09:03.974Z,6.30
2018-07-23T15:11:33.547Z,6.12
2018-07-23T15:14:02.384Z,6.30
2018-07-23T15:16:31.260Z,6.43
2018-07-23T15:19:00.067Z,5.82
2018-07-23T15:21:28.901Z,6.07
2018-07-23T15:23:57.742Z,5.90
2018-07-23T15:26:27.340Z,5.65
2018-07-23T15:28:56.930Z,6.20
2018-07-23T15:31:25.779Z,6.35
2018-07-23T15:33:54.621Z,5.95
2018-07-23T15:36:23.473Z,5.40
2018-07-23T15:38:52.317Z,6.07
2018-07-23T15:41:21.151Z,5.75
2018-07-23T15:43:50.015Z,5.75
2018-07-23T15:46:19.674Z,5.85
2018-07-23T15:48:48.423Z,5.25
2018-07-23T15:51:17.271Z,6.10
2018-07-23T15:53:46.857Z,5.20
2018-07-23T15:56:15.699Z,6.35
2018-07-23T15:58:44.540Z,6.15
2018-07-23T16:01:13.384Z,5.90
2018-07-23T16:03:42.234Z,5.60
2018-07-23T16:06:11.071Z,6.32
2018-07-23T16:08:39.910Z,5.90
2018-07-23T16:11:08.752Z,5.72
2018-07-23T16:13:37.598Z,6.03
2018-07-23T16:16:06.436Z,6.30
2018-07-23T16:18:35.279Z,5.75
2018-07-23T16:21:04.145Z,5.55
2018-07-23T16:23:32.986Z,5.95
2018-07-23T16:26:01.843Z,5.97
2018-07-23T16:28:30.674Z,5.70
2018-07-23T16:30:59.505Z,6.03
2018-07-23T16:33:28.344Z,5.28
2018-07-23T16:35:57.186Z,5.60
2018-07-23T16:38:26.025Z,5.78
2018-07-23T16:40:54.862Z,5.25
2018-07-23T16:43:24.105Z,5.32
2018-07-23T16:45:52.948Z,5.60
2018-07-23T16:48:21.799Z,5.62
2018-07-23T16:50:50.645Z,5.78
2018-07-23T16:53:20.227Z,5.65
2018-07-23T16:55:49.069Z,5.40
2018-07-23T16:58:17.940Z,5.95
2018-07-23T17:00:47.520Z,6.50
2018-07-23T17:03:16.369Z,5.90
2018-07-23T17:05:45.213Z,5.70
2018-07-23T17:08:14.806Z,5.25
2018-07-23T17:10:43.656Z,5.30
2018-07-23T17:13:12.511Z,6.22
2018-07-23T17:15:41.394Z,6.05
2018-07-23T17:18:10.328Z,5.50
2018-07-23T17:20:39.078Z,6.30
2018-07-23T17:23:08.664Z,5.68
2018-07-23T17:25:37.508Z,5.37
2018-07-23T17:28:06.366Z,5.50
2018-07-23T17:30:35.945Z,5.45
2018-07-23T17:33:04.788Z,5.60
2018-07-23T17:35:33.679Z,5.60
2018-07-23T17:38:02.465Z,5.75
2018-07-23T17:40:31.303Z,5.50
2018-07-23T17:43:00.142Z,5.28
2018-07-23T17:45:28.986Z,5.80
2018-07-23T17:47:57.819Z,5.72
2018-07-23T17:50:26.659Z,5.32
2018-07-23T17:52:55.521Z,6.03
2018-07-23T17:55:24.368Z,5.47
2018-07-23T17:57:53.955Z,5.53
2018-07-23T18:00:22.789Z,5.62
2018-07-23T18:02:51.644Z,5.12
2018-07-23T18:05:21.222Z,5.82
2018-07-23T18:07:50.081Z,5.65
2018-07-23T18:10:18.922Z,5.53
2018-07-23T18:12:47.764Z,5.90
2018-07-23T18:15:16.610Z,5.37
2018-07-23T18:17:45.460Z,5.20
2018-07-23T18:20:14.305Z,6.22
2018-07-23T18:22:43.138Z,5.70
2018-07-23T18:25:12.041Z,5.90
2018-07-23T18:27:41.590Z,6.18
2018-07-23T18:30:11.198Z,6.68
2018-07-23T18:32:40.810Z,7.28
2018-07-23T18:35:09.659Z,6.85
2018-07-23T18:37:38.510Z,6.78
2018-07-23T18:40:07.360Z,6.12
2018-07-23T18:42:36.216Z,6.07
2018-07-23T18:45:05.055Z,6.22
2018-07-23T18:47:33.947Z,5.97
2018-07-23T18:50:02.740Z,6.28
2018-07-23T18:52:31.601Z,6.18
2018-07-23T18:55:00.440Z,6.10
2018-07-23T18:57:29.276Z,5.72
2018-07-23T18:59:58.128Z,5.80
2018-07-23T19:02:27.736Z,5.82
2018-07-23T19:04:57.299Z,5.80
2018-07-23T19:07:26.146Z,6.05
2018-07-23T19:09:54.983Z,5.78
2018-07-23T19:12:23.817Z,7.05
2018-07-23T19:14:52.656Z,7.12
2018-07-23T19:17:22.088Z,6.55
2018-07-23T19:19:50.931Z,7.32
2018-07-23T19:22:19.766Z,7.28
2018-07-23T19:24:49.351Z,7.00
2018-07-23T19:27:18.237Z,7.75
2018-07-23T19:29:47.047Z,7.93
2018-07-23T19:32:16.633Z,7.07
2018-07-23T19:34:45.482Z,7.43
2018-07-23T19:37:14.340Z,7.30
2018-07-23T19:39:43.175Z,6.85
2018-07-23T19:42:12.076Z,7.50
2018-07-23T19:44:41.608Z,8.60
2018-07-23T19:47:10.441Z,7.57
2018-07-23T19:49:39.295Z,7.30
2018-07-23T19:52:08.130Z,8.32
2018-07-23T19:54:36.962Z,7.62
2018-07-23T19:57:05.820Z,7.62
2018-07-23T19:59:34.652Z,7.20
2018-07-23T20:02:03.499Z,7.25
2018-07-23T20:04:32.328Z,7.70
2018-07-23T20:07:01.907Z,6.95
2018-07-23T20:09:30.755Z,7.60
2018-07-23T20:12:00.343Z,7.82
2018-07-23T20:14:29.189Z,6.78
2018-07-23T20:16:58.026Z,7.70
2018-07-23T20:19:27.666Z,7.37
2018-07-23T20:21:56.444Z,7.83
2018-07-23T20:24:25.275Z,7.25
2018-07-23T20:26:54.117Z,7.15
2018-07-23T20:29:22.967Z,7.32
2018-07-23T20:31:51.820Z,7.37
2018-07-23T20:34:20.659Z,8.23
2018-07-23T20:36:49.511Z,8.02
2018-07-23T20:39:18.362Z,7.97
2018-07-23T20:41:47.956Z,7.87
2018-07-23T20:44:16.814Z,7.97
2018-07-23T20:46:45.621Z,8.20
2018-07-23T20:49:14.457Z,7.55
2018-07-23T20:51:43.293Z,7.12
2018-07-23T20:54:12.126Z,7.55
2018-07-23T20:56:40.999Z,7.03
2018-07-23T20:59:09.804Z,8.20
2018-07-23T21:01:38.640Z,7.68
2018-07-23T21:04:07.478Z,7.45
2018-07-23T21:06:36.386Z,8.55
2018-07-23T21:09:05.167Z,8.32
2018-07-23T21:11:34.003Z,8.82
2018-07-23T21:14:02.844Z,8.77
2018-07-23T21:16:31.688Z,8.27
2018-07-23T21:19:00.522Z,8.32
2018-07-23T21:21:29.377Z,8.48
2018-07-23T21:23:58.224Z,8.40
2018-07-23T21:26:27.058Z,8.35
2018-07-23T21:28:55.915Z,7.18
2018-07-23T21:31:24.759Z,9.00
2018-07-23T21:33:54.176Z,8.90
2018-07-23T21:36:23.762Z,8.75
2018-07-23T21:38:52.618Z,8.50
2018-07-23T21:41:21.478Z,8.57
2018-07-23T21:43:51.055Z,8.70
2018-07-23T21:46:20.475Z,7.95
2018-07-23T21:48:49.364Z,8.02
2018-07-23T21:51:18.187Z,9.57
2018-07-23T21:53:47.044Z,9.27
2018-07-23T21:56:16.626Z,7.93
2018-07-23T21:58:45.464Z,9.50
2018-07-23T22:01:15.035Z,8.45
2018-07-23T22:03:43.862Z,9.17
2018-07-23T22:06:12.710Z,9.32
2018-07-23T22:08:41.542Z,8.90
2018-07-23T22:11:11.277Z,9.90
2018-07-23T22:13:40.073Z,9.63
2018-07-23T22:16:08.918Z,9.45
2018-07-23T22:18:37.770Z,9.50
2018-07-23T22:21:06.607Z,9.68
2018-07-23T22:23:35.441Z,8.65
2018-07-23T22:26:04.281Z,9.60
2018-07-23T22:28:33.115Z,9.27
2018-07-23T22:31:01.959Z,9.45
2018-07-23T22:33:30.804Z,9.23
2018-07-23T22:35:59.650Z,8.90
2018-07-23T22:38:28.486Z,9.63
2018-07-23T22:40:57.331Z,9.57
2018-07-23T22:43:26.183Z,10.07
2018-07-23T22:45:55.024Z,10.05
2018-07-23T22:48:24.451Z,9.85
2018-07-23T22:50:53.315Z,9.88
2018-07-23T22:53:22.135Z,11.43
2018-07-23T22:55:51.006Z,10.05
2018-07-23T22:58:20.592Z,9.57
2018-07-23T23:00:49.450Z,10.23
2018-07-23T23:03:18.317Z,10.68
2018-07-23T23:05:47.155Z,10.48
2018-07-23T23:08:15.997Z,9.10
2018-07-23T23:10:44.839Z,9.20
2018-07-23T23:13:13.703Z,9.20
2018-07-23T23:15:42.543Z,10.65
2018-07-23T23:18:11.392Z,9.60
2018-07-23T23:20:40.242Z,9.63
2018-07-23T23:23:09.082Z,9.43
2018-07-23T23:25:37.935Z,9.65
2018-07-23T23:28:06.780Z,9.95
2018-07-23T23:30:36.373Z,10.38
2018-07-23T23:33:05.216Z,10.93
2018-07-23T23:35:34.067Z,11.10
2018-07-23T23:38:03.673Z,10.95
2018-07-23T23:40:32.524Z,10.67
2018-07-23T23:43:01.376Z,11.10
2018-07-23T23:45:30.219Z,9.98
2018-07-23T23:47:59.054Z,9.80
2018-07-23T23:50:27.926Z,9.52
2018-07-23T23:52:57.513Z,10.93
2018-07-23T23:55:26.359Z,10.60
2018-07-23T23:57:55.195Z,10.98
